Time;durP1;ratioP1;P1;durP2;ratioP2;P2;SDS_P1;SDS_P2;PMS_P1;PMS_P2;Temp;Humidity;BMP_temperature;BMP_pressure;BME280_temperature;BME280_humidity;BME280_pressure;Samples;Min_cycle;Max_cycle;Signal;HPM_P1;HPM_P2
2021/04/22 00:00:24;;;;;;;22.10;14.32;;;;;;;29.46;60.76;100887.00;5026868;28;66877;-34
2021/04/22 00:02:54;;;;;;;16.77;12.60;;;;;;;29.57;61.44;100894.47;5033817;28;70151;-34
2021/04/22 00:05:30;;;;;;;16.98;11.68;;;;;;;29.66;60.89;100903.22;5018646;28;65010;-34
2021/04/22 00:08:02;;;;;;;20.27;12.13;;;;;;;29.75;61.21;100908.16;5030540;28;69674;-32
2021/04/22 00:10:43;;;;;;;17.00;11.30;;;;;;;29.82;62.35;100911.69;5021093;28;65216;-33
2021/04/22 00:13:17;;;;;;;21.23;12.13;;;;;;;29.91;61.58;100919.56;5026768;28;70236;-33
2021/04/22 00:15:47;;;;;;;25.05;12.07;;;;;;;29.99;61.16;100927.44;5031626;28;65978;-33
2021/04/22 00:18:17;;;;;;;17.77;10.68;;;;;;;30.04;61.70;100924.94;5019167;28;69121;-33
2021/04/22 00:20:47;;;;;;;11.88;10.73;;;;;;;30.06;61.48;100928.25;5024858;28;65441;-33
2021/04/22 00:23:18;;;;;;;15.25;10.68;;;;;;;30.15;62.33;100936.97;5036389;28;69732;-33
2021/04/22 00:25:48;;;;;;;25.00;10.93;;;;;;;30.20;61.90;100940.69;5021171;28;65386;-32
2021/04/22 00:28:18;;;;;;;16.23;11.32;;;;;;;30.27;62.47;100944.22;5030211;28;69872;-33
2021/04/22 00:30:48;;;;;;;27.63;10.82;;;;;;;30.28;62.35;100951.31;5018309;28;65074;-34
2021/04/22 00:33:20;;;;;;;24.92;10.45;;;;;;;30.36;62.95;100957.50;5018662;28;70200;-33
2021/04/22 00:35:51;;;;;;;;;;;;;;;30.41;62.63;100965.81;5020000;28;65816;-35
2021/04/22 00:38:21;;;;;;;16.52;10.70;;;;;;;30.46;62.70;100960.59;5035217;28;69831;-34
2021/04/22 00:40:51;;;;;;;21.63;9.95;;;;;;;30.54;62.25;100946.81;5016614;28;65148;-35
2021/04/22 00:43:21;;;;;;;23.75;9.85;;;;;;;30.59;61.81;100955.13;5020982;28;69730;-34
2021/04/22 00:45:52;;;;;;;19.58;9.88;;;;;;;30.62;62.22;100949.28;5023314;28;65316;-34
2021/04/22 00:48:23;;;;;;;16.73;9.70;;;;;;;30.51;61.86;100933.72;5034935;28;70418;-34
2021/04/22 00:51:05;;;;;;;18.42;9.35;;;;;;;30.66;61.22;100955.91;5021271;28;65233;-34
2021/04/22 00:53:40;;;;;;;11.15;9.38;;;;;;;30.69;60.85;100965.47;5017532;28;70082;-35
2021/04/22 00:56:11;;;;;;;10.40;9.40;;;;;;;30.68;60.80;100961.94;5021089;28;65977;-37
2021/04/22 00:58:41;;;;;;;15.35;10.18;;;;;;;30.71;60.48;100964.22;5022977;28;69725;-35
2021/04/22 01:01:11;;;;;;;14.38;9.40;;;;;;;30.71;60.53;100958.78;5034992;28;65932;-35
2021/04/22 01:03:41;;;;;;;16.83;9.43;;;;;;;30.75;60.18;100963.75;5030348;28;70110;-35
2021/04/22 01:06:11;;;;;;;12.90;9.73;;;;;;;30.76;60.06;100965.41;5018785;28;65995;-34
2021/04/22 01:08:42;;;;;;;12.18;9.00;;;;;;;30.76;59.87;100966.28;5029361;28;70370;-36
2021/04/22 01:11:13;;;;;;;11.23;9.60;;;;;;;30.78;59.91;100963.31;5034991;28;66349;-36
2021/04/22 01:13:43;;;;;;;18.83;9.33;;;;;;;30.78;59.81;100968.75;5034813;28;69860;-34
2021/04/22 01:16:13;;;;;;;13.05;9.02;;;;;;;30.80;59.91;100969.41;5017596;28;66711;-35
2021/04/22 01:18:43;;;;;;;13.13;8.82;;;;;;;30.80;59.61;100967.50;5026626;28;69880;-36
2021/04/22 01:21:26;;;;;;;11.18;9.82;;;;;;;30.80;59.86;100972.09;5023266;28;65905;-34
2021/04/22 01:23:57;;;;;;;13.82;10.45;;;;;;;30.82;59.45;100986.25;5019127;28;70342;-34
2021/04/22 01:26:28;;;;;;;13.73;10.40;;;;;;;30.83;59.63;100988.75;5029939;28;65214;-34
2021/04/22 01:28:58;;;;;;;11.05;9.98;;;;;;;30.81;59.36;100979.16;5018579;28;69455;-35
2021/04/22 01:31:29;;;;;;;13.15;10.38;;;;;;;30.84;59.47;100987.72;5019226;28;66512;-34
2021/04/22 01:34:03;;;;;;;11.73;10.60;;;;;;;30.81;59.02;100979.16;5021878;28;69721;-34
2021/04/22 01:36:40;;;;;;;15.15;9.95;;;;;;;30.87;59.49;100989.97;5026904;28;66272;-34
2021/04/22 01:39:12;;;;;;;11.50;9.82;;;;;;;30.89;59.38;100992.47;5023526;28;68943;-35
2021/04/22 01:41:42;;;;;;;10.55;9.60;;;;;;;30.88;59.31;100986.22;5018417;28;66366;-34
2021/04/22 01:44:12;;;;;;;11.90;9.90;;;;;;;30.92;58.98;100997.44;5018756;28;69541;-33
2021/04/22 01:46:42;;;;;;;10.80;9.23;;;;;;;30.92;58.97;100998.28;5021922;28;66305;-35
2021/04/22 01:49:12;;;;;;;10.50;9.38;;;;;;;30.94;58.98;100989.94;5019332;28;69186;-35
2021/04/22 01:51:41;;;;;;;12.98;9.00;;;;;;;30.94;58.80;100998.06;5025315;28;65960;-35
2021/04/22 01:54:11;;;;;;;10.48;8.77;;;;;;;30.96;58.55;100995.16;5024456;28;69803;-35
2021/04/22 01:56:41;;;;;;;10.13;9.25;;;;;;;30.97;58.34;100992.19;5022289;28;64730;-35
2021/04/22 01:59:10;;;;;;;11.15;9.98;;;;;;;30.99;58.54;100990.09;5022241;28;69826;-36
2021/04/22 02:01:40;;;;;;;10.88;9.25;;;;;;;31.01;58.14;100988.03;5033153;28;65918;-35
2021/04/22 02:04:11;;;;;;;10.02;9.15;;;;;;;31.03;58.36;100994.03;5033818;28;69294;-35
2021/04/22 02:06:41;;;;;;;12.02;9.60;;;;;;;31.04;57.96;100984.88;5018479;28;66026;-36
2021/04/22 02:09:10;;;;;;;11.60;9.57;;;;;;;31.08;58.30;100979.84;5017647;28;69111;-35
2021/04/22 02:11:40;;;;;;;11.07;9.57;;;;;;;31.09;58.56;100973.34;5016972;28;65408;-35
2021/04/22 02:14:10;;;;;;;12.13;10.18;;;;;;;31.11;58.43;100974.78;5023774;28;69999;-35
2021/04/22 02:16:40;;;;;;;11.88;9.90;;;;;;;31.15;58.00;100972.50;5018450;28;65845;-35
2021/04/22 02:19:12;;;;;;;11.27;9.45;;;;;;;31.11;58.36;100963.97;5030835;28;69822;-35
2021/04/22 02:21:43;;;;;;;12.57;9.90;;;;;;;31.19;58.31;100962.03;5018123;28;65146;-34
2021/04/22 02:24:12;;;;;;;10.65;9.65;;;;;;;31.21;58.61;100959.94;5026339;28;69430;-34
2021/04/22 02:26:44;;;;;;;12.07;9.65;;;;;;;31.25;58.35;100963.88;5032817;28;65198;-35
2021/04/22 02:29:13;;;;;;;16.15;10.57;;;;;;;31.26;58.15;100960.09;5015871;28;69017;-35
2021/04/22 02:31:43;;;;;;;11.60;10.48;;;;;;;31.28;58.38;100958.81;5021733;28;66281;-35
2021/04/22 02:34:13;;;;;;;10.90;9.85;;;;;;;31.30;57.78;100964.84;5025678;28;70100;-35
2021/04/22 02:36:43;;;;;;;13.68;10.63;;;;;;;31.31;58.19;100962.97;5036465;28;66088;-35
2021/04/22 02:39:12;;;;;;;11.57;9.52;;;;;;;31.33;58.24;100955.47;5023984;28;69174;-35
2021/04/22 02:41:42;;;;;;;14.27;9.68;;;;;;;31.36;57.73;100965.88;5021571;28;66136;-35
2021/04/22 02:44:16;;;;;;;14.80;10.95;;;;;;;31.34;57.64;100962.53;5030556;28;69352;-35
2021/04/22 02:46:46;;;;;;;12.98;11.27;;;;;;;31.40;57.44;100961.69;5018426;28;65409;-35
2021/04/22 02:49:16;;;;;;;13.60;10.77;;;;;;;31.42;57.29;100970.41;5017865;28;70410;-34
2021/04/22 02:51:45;;;;;;;12.32;10.32;;;;;;;31.44;57.38;100972.91;5019033;28;65096;-34
2021/04/22 02:54:15;;;;;;;10.98;9.93;;;;;;;31.47;57.50;100969.75;5017953;28;70000;-35
2021/04/22 02:56:45;;;;;;;14.25;10.50;;;;;;;31.47;57.05;100973.28;5036523;28;66615;-35
2021/04/22 02:59:15;;;;;;;11.52;10.50;;;;;;;31.48;57.49;100974.13;5036617;28;69279;-35
2021/04/22 03:01:45;;;;;;;14.05;10.88;;;;;;;31.53;57.02;100980.53;5024854;28;66272;-34
2021/04/22 03:04:15;;;;;;;10.70;10.00;;;;;;;31.54;57.21;100976.78;5032097;28;69182;-35
2021/04/22 03:07:00;;;;;;;11.02;10.13;;;;;;;31.55;57.28;100981.16;5024780;28;65259;-36
2021/04/22 03:09:29;;;;;;;10.50;9.80;;;;;;;31.58;57.31;100988.84;5028172;28;69296;-34
2021/04/22 03:12:00;;;;;;;11.32;10.27;;;;;;;31.60;56.83;100984.03;5016977;28;65960;-35
2021/04/22 03:14:29;;;;;;;10.85;9.80;;;;;;;31.63;56.94;100992.78;5018321;28;70370;-36
2021/04/22 03:16:59;;;;;;;11.10;10.30;;;;;;;31.63;57.39;100988.19;5019193;28;66017;-35
2021/04/22 03:19:34;;;;;;;11.38;10.38;;;;;;;31.65;57.14;100993.34;5020782;28;69352;-35
2021/04/22 03:22:04;;;;;;;14.60;10.30;;;;;;;31.66;56.87;100993.16;5031848;28;66103;-36
2021/04/22 03:24:35;;;;;;;10.80;9.93;;;;;;;31.70;56.97;100993.53;5037678;28;69560;-36
2021/04/22 03:27:06;;;;;;;10.63;9.73;;;;;;;31.72;56.85;100986.00;5022390;28;66207;-36
2021/04/22 03:29:36;;;;;;;10.45;9.50;;;;;;;31.74;57.20;100979.31;5028779;28;69923;-36
2021/04/22 03:32:06;;;;;;;13.30;10.60;;;;;;;31.78;57.20;100990.53;5019017;28;66478;-36
2021/04/22 03:34:36;;;;;;;12.15;9.65;;;;;;;31.80;57.04;100993.84;5018436;28;69076;-35
2021/04/22 03:37:06;;;;;;;10.50;9.38;;;;;;;31.83;56.48;100983.38;5033436;28;65855;-36
2021/04/22 03:39:36;;;;;;;9.93;9.05;;;;;;;31.86;57.01;100987.53;5019297;28;70510;-35
2021/04/22 03:42:06;;;;;;;10.68;9.15;;;;;;;31.90;56.61;100983.31;5035025;28;65995;-35
2021/04/22 03:44:36;;;;;;;12.88;9.85;;;;;;;31.92;56.74;100975.78;5021243;28;69651;-34
2021/04/22 03:47:06;;;;;;;10.13;9.02;;;;;;;31.93;56.87;100976.63;5029010;28;66002;-34
2021/04/22 03:49:36;;;;;;;10.63;9.55;;;;;;;31.95;56.33;100980.78;5039537;28;70117;-34
2021/04/22 03:52:07;;;;;;;11.30;9.48;;;;;;;31.91;56.80;100974.16;5019958;28;66265;-34
2021/04/22 03:54:38;;;;;;;9.20;8.50;;;;;;;31.99;56.61;100979.28;5028788;28;70477;-35
2021/04/22 03:57:08;;;;;;;11.95;9.35;;;;;;;32.00;56.41;100980.94;5039761;28;66391;-35
2021/04/22 03:59:39;;;;;;;10.60;9.55;;;;;;;32.03;56.35;100982.38;5029643;28;68915;-34
2021/04/22 04:02:08;;;;;;;11.45;9.32;;;;;;;32.01;56.55;100982.59;5026158;28;66403;-35
2021/04/22 04:04:39;;;;;;;11.43;8.90;;;;;;;32.05;56.65;100983.81;5006139;28;69975;-34
2021/04/22 04:07:09;;;;;;;10.38;9.27;;;;;;;32.09;56.14;100969.78;5028180;28;66639;-35
2021/04/22 04:09:39;;;;;;;11.10;9.38;;;;;;;32.11;55.96;100967.66;5031219;28;69938;-35
2021/04/22 04:12:10;;;;;;;12.25;8.98;;;;;;;32.14;56.32;100969.94;5019443;28;65242;-35
2021/04/22 04:14:40;;;;;;;13.30;8.52;;;;;;;32.16;56.52;100963.22;5019071;28;69670;-35
2021/04/22 04:17:10;;;;;;;10.65;9.18;;;;;;;32.18;56.30;100957.56;5030305;28;66486;-36
2021/04/22 04:19:41;;;;;;;9.05;8.35;;;;;;;32.18;56.28;100954.84;5035744;28;69881;-35
2021/04/22 04:22:11;;;;;;;9.70;8.88;;;;;;;32.19;56.57;100942.94;5021632;28;64974;-35
2021/04/22 04:24:41;;;;;;;14.05;8.73;;;;;;;32.20;56.09;100952.72;5025593;28;70042;-35
2021/04/22 04:27:12;;;;;;;9.35;8.32;;;;;;;32.21;56.25;100948.97;5036293;28;65933;-35
2021/04/22 04:29:42;;;;;;;16.50;9.38;;;;;;;32.22;56.25;100953.34;5021388;28;69635;-36
2021/04/22 04:32:11;;;;;;;16.92;10.05;;;;;;;32.22;56.34;100958.78;5029420;28;66279;-34
2021/04/22 04:34:41;;;;;;;13.30;9.43;;;;;;;32.22;56.18;100953.34;5021759;28;69927;-34
2021/04/22 04:37:11;;;;;;;19.98;8.85;;;;;;;32.24;55.90;100945.81;5021404;28;66325;-35
2021/04/22 04:39:41;;;;;;;13.77;9.35;;;;;;;32.25;56.59;100958.31;5031720;28;69923;-35
2021/04/22 04:42:10;;;;;;;11.45;8.70;;;;;;;32.28;56.38;100947.00;5030378;28;66150;-35
2021/04/22 04:44:40;;;;;;;10.02;9.02;;;;;;;32.28;55.89;100952.41;5021821;28;69295;-35
2021/04/22 04:47:10;;;;;;;10.13;9.23;;;;;;;32.30;56.16;100944.88;5037541;28;65992;-34
2021/04/22 04:49:40;;;;;;;10.25;8.85;;;;;;;32.31;56.24;100932.97;5020455;28;70065;-34
2021/04/22 04:52:09;;;;;;;9.77;8.63;;;;;;;32.32;56.37;100931.91;5018040;28;65239;-35
2021/04/22 04:54:39;;;;;;;9.85;8.88;;;;;;;32.30;56.14;100934.03;5029481;28;69167;-35
2021/04/22 04:57:11;;;;;;;12.93;9.20;;;;;;;32.32;56.45;100937.34;5020871;28;66297;-40
2021/04/22 04:59:41;;;;;;;9.35;8.10;;;;;;;32.31;56.65;100937.56;5017013;28;70406;-35
2021/04/22 05:02:11;;;;;;;11.10;8.15;;;;;;;32.30;56.42;100939.47;5022505;28;65613;-35
2021/04/22 05:04:41;;;;;;;11.75;8.00;;;;;;;32.32;56.18;100931.91;5030270;28;69911;-34
2021/04/22 05:07:11;;;;;;;9.52;8.80;;;;;;;32.33;56.35;100921.88;5010687;28;66379;-36
2021/04/22 05:09:41;;;;;;;11.27;8.07;;;;;;;32.35;56.39;100909.75;5021329;28;70779;-35
2021/04/22 05:12:11;;;;;;;8.93;8.07;;;;;;;32.36;56.22;100902.41;5034647;28;66416;-36
2021/04/22 05:14:40;;;;;;;9.55;8.70;;;;;;;32.36;56.31;100886.97;5034660;28;70234;-35
2021/04/22 05:17:10;;;;;;;9.48;8.20;;;;;;;32.36;56.39;100884.25;5019119;28;66332;-36
2021/04/22 05:19:41;;;;;;;9.55;8.70;;;;;;;32.36;56.74;100878.81;5025567;28;70176;-35
2021/04/22 05:22:11;;;;;;;10.70;8.40;;;;;;;32.38;56.84;100868.56;5015529;28;66213;-35
2021/04/22 05:24:41;;;;;;;9.15;8.32;;;;;;;32.41;56.85;100859.94;5016516;28;70437;-35
2021/04/22 05:27:13;;;;;;;12.50;8.90;;;;;;;32.46;56.51;100851.97;5017091;28;65866;-35
2021/04/22 05:29:44;;;;;;;9.25;8.48;;;;;;;32.47;56.83;100837.31;5032721;28;70538;-35
2021/04/22 05:32:13;;;;;;;9.27;7.93;;;;;;;32.53;56.31;100837.47;5022024;28;65681;-35
2021/04/22 05:34:43;;;;;;;9.05;7.95;;;;;;;32.54;56.18;100831.81;5017961;28;69416;-41
2021/04/22 05:37:19;;;;;;;13.43;7.70;;;;;;;32.56;56.46;100820.69;5016942;28;65491;-37
2021/04/22 05:39:48;;;;;;;8.77;8.02;;;;;;;32.58;56.45;100810.44;5031395;28;69931;-35
2021/04/22 05:42:18;;;;;;;8.90;8.05;;;;;;;32.57;56.38;100806.91;5019039;28;66167;-35
2021/04/22 05:44:47;;;;;;;8.07;7.38;;;;;;;32.59;56.68;100796.63;5018307;28;69126;-36
2021/04/22 05:47:17;;;;;;;15.75;7.40;;;;;;;32.62;56.67;100789.88;5030435;28;65277;-35
2021/04/22 05:49:47;;;;;;;7.47;6.88;;;;;;;32.63;56.23;100775.28;5017728;28;69697;-36
2021/04/22 05:52:16;;;;;;;7.68;7.00;;;;;;;32.66;56.40;100774.78;5031380;28;65270;-36
2021/04/22 05:54:46;;;;;;;9.48;7.25;;;;;;;32.68;56.39;100764.50;5030965;28;69177;-35
2021/04/22 05:57:15;;;;;;;7.90;7.07;;;;;;;32.70;56.48;100759.66;5018446;28;65265;-34
2021/04/22 05:59:45;;;;;;;7.10;6.57;;;;;;;32.73;56.20;100748.31;5028232;28;69283;-35
2021/04/22 06:02:14;;;;;;;7.97;7.18;;;;;;;32.74;56.11;100744.56;5036089;28;65334;-36
2021/04/22 06:04:44;;;;;;;9.70;7.00;;;;;;;32.76;55.81;100734.28;5037023;28;70084;-35
2021/04/22 06:07:13;;;;;;;7.03;6.63;;;;;;;32.78;55.95;100724.00;5036127;28;66064;-36
2021/04/22 06:09:43;;;;;;;7.53;6.93;;;;;;;32.79;56.08;100720.25;5016575;28;69603;-35
2021/04/22 06:12:13;;;;;;;7.18;6.63;;;;;;;32.81;56.05;100707.22;5030377;28;65514;-35
2021/04/22 06:14:43;;;;;;;7.95;6.93;;;;;;;32.84;56.02;100690.44;5031186;28;69211;-36
2021/04/22 06:17:14;;;;;;;11.13;6.65;;;;;;;32.88;56.07;100691.63;5015837;28;66439;-36
2021/04/22 06:19:44;;;;;;;9.33;6.10;;;;;;;32.89;56.17;100681.59;5014122;28;69370;-35
2021/04/22 06:22:14;;;;;;;7.25;6.68;;;;;;;32.96;55.95;100665.16;5031193;28;65844;-35
2021/04/22 06:24:43;;;;;;;7.28;6.57;;;;;;;32.95;55.62;100642.59;5021054;28;70388;-35
2021/04/22 06:27:13;;;;;;;6.55;6.05;;;;;;;32.98;55.53;100641.28;5034762;28;65399;-36
2021/04/22 06:29:43;;;;;;;6.72;6.15;;;;;;;32.99;55.81;100637.50;5013560;28;69842;-36
2021/04/22 06:32:13;;;;;;;6.80;6.38;;;;;;;33.02;55.69;100631.63;5027644;28;65366;-36
2021/04/22 06:34:42;;;;;;;6.10;5.70;;;;;;;33.03;55.55;100625.13;5024925;28;70126;-35
2021/04/22 06:37:12;;;;;;;6.57;6.05;;;;;;;33.06;55.50;100621.91;5031622;28;65136;-35
2021/04/22 06:39:41;;;;;;;6.10;5.60;;;;;;;33.08;55.64;100617.06;5033392;28;69158;-35
2021/04/22 06:42:11;;;;;;;6.45;5.85;;;;;;;33.10;55.66;100609.50;5020392;28;65271;-36
2021/04/22 06:44:42;;;;;;;6.13;5.63;;;;;;;33.11;55.54;100617.41;5017244;28;69554;-35
2021/04/22 06:47:12;;;;;;;6.43;6.00;;;;;;;33.15;55.36;100615.88;5017602;28;65405;-38
2021/04/22 06:49:42;;;;;;;6.15;5.55;;;;;;;33.19;55.55;100605.34;5017980;28;68949;-36
2021/04/22 06:52:12;;;;;;;6.13;5.57;;;;;;;33.20;55.56;100606.97;5028202;28;66069;-36
2021/04/22 06:54:42;;;;;;;5.97;5.57;;;;;;;33.27;55.07;100601.41;5019762;28;69936;-35
2021/04/22 06:57:14;;;;;;;6.53;5.43;;;;;;;33.30;55.27;100601.75;5033816;28;66336;-36
2021/04/22 06:59:44;;;;;;;6.10;5.65;;;;;;;33.35;55.17;100614.63;5018006;28;69275;-35
2021/04/22 07:02:13;;;;;;;6.32;5.72;;;;;;;33.39;55.19;100604.88;5038875;28;65619;-34
2021/04/22 07:04:44;;;;;;;5.60;5.20;;;;;;;33.44;55.17;100601.44;5020232;28;69884;-34
2021/04/22 07:07:13;;;;;;;7.30;5.22;;;;;;;33.48;54.91;100587.09;5036964;28;66454;-35
2021/04/22 07:09:43;;;;;;;5.80;5.40;;;;;;;33.52;54.99;100588.31;5040356;28;70172;-35
2021/04/22 07:12:14;;;;;;;5.70;5.30;;;;;;;33.53;54.86;100567.38;5025275;28;67542;-35
2021/04/22 07:14:44;;;;;;;5.85;5.38;;;;;;;33.64;54.45;100566.47;5038339;28;70847;-35
2021/04/22 07:17:14;;;;;;;5.63;5.22;;;;;;;33.68;54.72;100556.72;5022086;28;66387;-34
2021/04/22 07:19:44;;;;;;;5.78;4.60;;;;;;;33.72;54.23;100557.91;5020259;28;70492;-35
2021/04/22 07:22:14;;;;;;;6.00;5.40;;;;;;;33.77;54.18;100557.97;5035203;28;66802;-35
2021/04/22 07:24:44;;;;;;;5.57;5.07;;;;;;;33.81;54.45;100553.69;5021129;28;70314;-35
2021/04/22 07:27:15;;;;;;;7.23;5.20;;;;;;;33.86;54.26;100554.84;5018936;28;67624;-35
2021/04/22 07:29:47;;;;;;;5.15;4.65;;;;;;;33.90;54.14;100547.81;5026905;28;70426;-34
2021/04/22 07:32:19;;;;;;;4.55;4.15;;;;;;;33.93;54.16;100544.59;5029087;28;65793;-35
2021/04/22 07:34:49;;;;;;;;;;;;;;;33.86;53.99;100543.97;5033338;28;70226;-35
2021/04/22 07:37:18;;;;;;;4.85;4.55;;;;;;;33.99;54.12;100540.88;5023432;28;66309;-34
2021/04/22 07:39:48;;;;;;;5.38;5.07;;;;;;;34.01;53.69;100542.28;5025967;28;69870;-35
2021/04/22 07:42:18;;;;;;;5.18;4.88;;;;;;;34.04;54.20;100540.94;5023617;28;66788;-36
2021/04/22 07:44:48;;;;;;;6.25;4.68;;;;;;;34.08;53.84;100520.38;5028785;28;69828;-36
2021/04/22 07:47:18;;;;;;;6.13;4.88;;;;;;;34.12;53.84;100515.25;5028827;28;65858;-36
2021/04/22 07:49:57;;;;;;;5.28;4.82;;;;;;;34.15;53.79;100504.66;5039441;28;70178;-36
2021/04/22 07:52:27;;;;;;;5.05;4.43;;;;;;;34.18;53.74;100504.16;5032936;28;65967;-36
2021/04/22 07:54:56;;;;;;;5.30;4.90;;;;;;;34.18;53.71;100493.28;5022168;28;70127;-36
2021/04/22 07:57:28;;;;;;;5.10;4.70;;;;;;;34.17;53.55;100486.19;5021439;28;66219;-35
2021/04/22 07:59:57;;;;;;;5.68;5.28;;;;;;;34.17;53.75;100479.94;5024303;28;69924;-35
2021/04/22 08:02:43;;;;;;;6.13;4.72;;;;;;;34.18;53.72;100487.81;5022700;28;66336;-35
2021/04/22 08:05:15;;;;;;;6.05;5.55;;;;;;;34.24;53.60;100486.84;5030831;28;69505;-36
2021/04/22 08:08:06;;;;;;;;;;;;;;;34.13;53.39;100490.50;5021002;28;65305;-36
2021/04/22 08:10:40;;;;;;;5.05;4.75;;;;;;;34.28;53.38;100494.50;5030703;28;69927;-36
2021/04/22 08:13:12;;;;;;;5.53;5.13;;;;;;;34.29;53.13;100498.84;5016313;28;66177;-36
2021/04/22 08:15:44;;;;;;;6.03;5.43;;;;;;;34.29;53.32;100487.97;5027690;28;69155;-36
2021/04/22 08:18:14;;;;;;;5.97;5.47;;;;;;;34.31;53.71;100502.16;5021137;28;65311;-36
2021/04/22 08:20:44;;;;;;;5.70;5.22;;;;;;;34.36;53.13;100504.94;5027569;28;70536;-36
2021/04/22 08:23:14;;;;;;;6.13;5.63;;;;;;;34.39;53.28;100499.00;5040144;28;66246;-36
2021/04/22 08:25:49;;;;;;;7.00;6.38;;;;;;;34.38;53.44;100498.19;5022182;28;69086;-35
2021/04/22 08:28:20;;;;;;;5.88;5.38;;;;;;;34.41;53.33;100497.66;5017946;28;66428;-37
2021/04/22 08:31:12;;;;;;;7.13;6.53;;;;;;;34.40;53.28;100493.28;5017953;28;69960;-37
2021/04/22 08:33:42;;;;;;;6.57;6.07;;;;;;;34.44;53.28;100494.44;5019377;28;65856;-36
2021/04/22 08:36:12;;;;;;;6.30;5.90;;;;;;;34.48;53.28;100492.00;5034426;28;68815;-35
2021/04/22 08:38:42;;;;;;;6.72;6.13;;;;;;;34.49;53.16;100493.66;5029213;28;65376;-34
2021/04/22 08:41:12;;;;;;;7.82;7.07;;;;;;;34.53;53.09;100489.34;5027684;28;70277;-35
2021/04/22 08:43:42;;;;;;;7.38;6.72;;;;;;;34.56;52.99;100494.31;5030682;28;65960;-37
2021/04/22 08:46:14;;;;;;;7.45;6.90;;;;;;;34.56;53.36;100480.69;5030722;28;68880;-36
2021/04/22 08:48:46;;;;;;;7.97;7.18;;;;;;;34.59;52.83;100472.03;5017046;28;64434;-36
2021/04/22 08:51:16;;;;;;;7.95;7.13;;;;;;;34.62;53.13;100471.50;5019922;28;70046;-35
2021/04/22 08:53:47;;;;;;;7.03;6.53;;;;;;;34.65;53.46;100470.19;5032983;28;66042;-35
2021/04/22 08:56:19;;;;;;;12.48;6.75;;;;;;;34.62;53.07;100466.06;5019693;28;69149;-36
2021/04/22 08:58:50;;;;;;;8.45;7.47;;;;;;;34.68;53.25;100465.03;5021473;28;65383;-35
2021/04/22 09:01:22;;;;;;;8.13;7.07;;;;;;;34.68;52.92;100469.66;5028993;28;69839;-35
2021/04/22 09:03:53;;;;;;;9.48;7.45;;;;;;;34.70;53.11;100471.06;5020418;28;66104;-35
2021/04/22 09:06:23;;;;;;;8.48;7.75;;;;;;;34.69;52.58;100461.25;5029020;28;69700;-36
2021/04/22 09:08:53;;;;;;;9.10;7.88;;;;;;;34.73;52.74;100460.72;5020407;28;65948;-34
2021/04/22 09:11:26;;;;;;;10.90;8.25;;;;;;;34.74;52.48;100462.38;5023825;28;69076;-34
2021/04/22 09:13:56;;;;;;;8.13;7.25;;;;;;;34.77;52.48;100472.75;5026604;28;66009;-35
2021/04/22 09:16:29;;;;;;;8.53;7.80;;;;;;;34.75;53.01;100491.28;5030278;28;71305;-36
2021/04/22 09:19:21;;;;;;;8.15;7.55;;;;;;;34.68;53.04;100489.53;5019194;28;66357;-35
2021/04/22 09:21:55;;;;;;;8.02;7.53;;;;;;;34.75;52.77;100502.16;5020428;28;69603;-35
2021/04/22 09:24:27;;;;;;;11.18;8.90;;;;;;;34.74;52.50;100503.22;5031414;28;65307;-35
2021/04/22 09:27:02;;;;;;;10.52;9.45;;;;;;;34.74;53.12;100495.06;5025831;28;69906;-36
2021/04/22 09:29:36;;;;;;;11.05;8.95;;;;;;;34.74;52.79;100486.88;5033064;28;65454;-36
2021/04/22 09:32:16;;;;;;;10.75;8.45;;;;;;;34.76;52.60;100495.63;5031081;28;69664;-36
2021/04/22 09:34:46;;;;;;;11.57;8.40;;;;;;;34.78;52.77;100490.75;5027306;28;66680;-36
2021/04/22 09:37:20;;;;;;;10.98;8.48;;;;;;;34.78;52.86;100501.66;5032852;28;69034;-36
2021/04/22 09:39:52;;;;;;;10.63;8.40;;;;;;;34.69;52.92;100499.38;5025657;28;66063;-36
2021/04/22 09:42:26;;;;;;;8.75;8.02;;;;;;;34.80;52.68;100521.28;5032847;28;70276;-36
2021/04/22 09:45:08;;;;;;;9.48;8.68;;;;;;;34.76;52.62;100528.31;5023337;28;66149;-36
2021/04/22 09:47:38;;;;;;;9.85;9.05;;;;;;;34.77;52.77;100538.13;5035153;28;70107;-35
2021/04/22 09:50:14;;;;;;;8.50;7.70;;;;;;;34.79;52.96;100536.81;5031668;28;65982;-35
2021/04/22 09:52:48;;;;;;;9.13;8.23;;;;;;;34.70;52.68;100539.16;5024859;28;70671;-36
2021/04/22 09:55:20;;;;;;;7.90;7.43;;;;;;;34.75;52.96;100545.75;5030552;28;65348;-35
2021/04/22 09:57:51;;;;;;;10.43;7.80;;;;;;;34.73;52.66;100553.34;5036416;28;70214;-36
2021/04/22 10:00:28;;;;;;;9.20;8.45;;;;;;;34.69;52.75;100564.78;5032745;28;66223;-35
2021/04/22 10:03:01;;;;;;;12.68;8.02;;;;;;;34.74;52.44;100574.06;5026673;28;69819;-36
2021/04/22 10:05:34;;;;;;;8.02;7.32;;;;;;;34.73;52.92;100583.31;5019855;28;65099;-35
2021/04/22 10:08:16;;;;;;;8.65;7.82;;;;;;;34.65;52.87;100579.97;5017431;28;70002;-35
2021/04/22 10:11:00;;;;;;;9.52;8.02;;;;;;;34.65;52.95;100579.97;5025229;28;65392;-34
2021/04/22 10:13:43;;;;;;;8.55;7.82;;;;;;;34.61;52.74;100599.81;5019070;28;69199;-35
2021/04/22 10:16:14;;;;;;;10.63;8.10;;;;;;;34.65;52.86;100607.19;5017864;28;65328;-34
2021/04/22 10:18:48;;;;;;;13.18;8.70;;;;;;;34.61;53.20;100613.44;5025488;28;69976;-32
2021/04/22 10:21:21;;;;;;;16.50;8.77;;;;;;;34.56;53.44;100613.34;5023973;28;66480;-32
2021/04/22 10:24:01;;;;;;;;;;;;;;;34.31;53.85;100605.63;5034614;28;70637;-32
2021/04/22 10:26:31;;;;;;;27.80;11.18;;;;;;;34.40;54.03;100604.94;5023642;28;66836;-32
2021/04/22 10:29:02;;;;;;;17.08;10.88;;;;;;;34.45;54.08;100612.34;5032191;28;69969;-32
2021/04/22 10:31:33;;;;;;;25.60;10.63;;;;;;;34.31;53.78;100611.06;5033406;28;66103;-33
2021/04/22 10:34:09;;;;;;;19.75;10.45;;;;;;;34.08;54.52;100593.84;5023605;28;69916;-33
2021/04/22 10:36:40;;;;;;;13.07;9.85;;;;;;;34.01;55.08;100629.34;5036096;28;66184;-33
2021/04/22 10:39:12;;;;;;;20.75;10.00;;;;;;;33.92;55.38;100646.34;5037148;28;68750;-33
2021/04/22 10:41:44;;;;;;;20.80;9.50;;;;;;;33.80;55.64;100649.97;5039575;28;66318;-32
2021/04/22 10:44:15;;;;;;;20.85;9.43;;;;;;;33.76;55.85;100664.31;5027724;28;70418;-33
2021/04/22 10:46:53;;;;;;;20.23;9.40;;;;;;;33.67;55.73;100673.94;5020524;28;66209;-33
2021/04/22 10:49:24;;;;;;;19.80;9.82;;;;;;;33.60;56.31;100685.00;5032924;28;69802;-32
2021/04/22 10:51:55;;;;;;;15.30;9.60;;;;;;;33.56;56.01;100675.66;5017970;28;65974;-32
2021/04/22 10:54:26;;;;;;;22.52;10.30;;;;;;;33.52;56.17;100674.47;5020850;28;69960;-33
2021/04/22 10:57:11;;;;;;;15.55;10.63;;;;;;;33.43;56.82;100694.94;5019443;28;65974;-33
2021/04/22 10:59:44;;;;;;;26.13;11.57;;;;;;;33.42;56.65;100706.91;5032365;28;69174;-35
2021/04/22 11:02:28;;;;;;;17.58;11.18;;;;;;;33.33;56.49;100701.84;5023277;28;66123;-33
2021/04/22 11:04:58;;;;;;;;;;;;;;;33.23;56.88;100695.38;5034075;28;69298;-33
2021/04/22 11:07:28;;;;;;;32.50;13.00;;;;;;;33.22;56.73;100702.69;5039807;28;65690;-34
2021/04/22 11:10:13;;;;;;;29.95;12.60;;;;;;;33.24;56.61;100711.44;5040946;28;69294;-33
2021/04/22 11:12:43;;;;;;;22.13;11.38;;;;;;;33.24;56.45;100730.47;5023998;28;66470;-33
2021/04/22 11:15:21;;;;;;;21.17;10.77;;;;;;;33.13;56.86;100725.91;5024702;28;70379;-34
2021/04/22 11:17:51;;;;;;;25.17;10.85;;;;;;;33.08;57.09;100723.06;5021771;28;65835;-32
2021/04/22 11:20:22;;;;;;;13.80;10.35;;;;;;;33.06;57.14;100714.31;5031472;28;69966;-30
2021/04/22 11:22:53;;;;;;;13.57;10.17;;;;;;;33.04;57.48;100708.28;5038423;28;64773;-32
2021/04/22 11:25:25;;;;;;;21.20;10.70;;;;;;;32.98;57.75;100706.50;5020120;28;68812;-32
2021/04/22 11:28:05;;;;;;;17.60;10.60;;;;;;;32.93;57.98;100705.34;5030124;28;65270;-31
2021/04/22 11:30:37;;;;;;;16.35;10.57;;;;;;;33.01;57.73;100700.63;5019526;28;69687;-31
2021/04/22 11:33:08;;;;;;;;;;;;;;;32.98;58.27;100701.88;5027561;28;65555;-31
2021/04/22 11:35:38;;;;;;;23.33;10.73;;;;;;;33.03;57.99;100701.22;5028021;28;69035;-32
2021/04/22 11:38:10;;;;;;;21.73;11.25;;;;;;;33.10;57.97;100699.19;5034644;28;64988;-32